Strona główna
METAR-TAF:

METAR-TAF

Lotnisko :

Port lotniczy Córdoba

Córdoba, Argentyna

Szerokość geograficzna: 31-19S, Długość geograficzna: 064-13W, wysokość: 484 m

Aktualna obserwacja pogody

Raport powstał 43 minut temu, godzina 08:00 UTC
Wiatr 4 kt od północ, zmienny między północny zachód i północno-północny wschód
Temperatura 2°C
Wilgotność 93%
Ciśnienie 1009 hPa
Widzialność 10 km lub więcej
Brak chmur poniżej 1500 m i brak chmur cumulonimbus

METAR: SACO 250800Z 35004KT 310V030 CAVOK 02/01 Q1009 NOSIG

czas: 05:43 (08:43 UTC)

Prognoza

Raport powstał 3 godziny i 43 minut temu, godzina 05:00 UTC
Prognoza ważna od 25 godzina 06 UTC do 26 godzina 06 UTC
Wiatr 5 kt od południe
Widzialność 10 km lub więcej
Brak chmur poniżej 1500 m i brak chmur cumulonimbus
Stopniowe zmiany
od 25 godzina 12 UTC do 25 godzina 14 UTC
Wiatr 15 kt od południowo-południowy wschód
Widzialność 10 km lub więcej

TAF: SACO 250500Z 2506/2606 18005KT CAVOK TX18/2518Z TN06/2510Z BECMG 2512/2514 16015KT 9999 NSC

Obserwacja i prognoza pogody dla ponad 4000 lotnisk (raport METAR i TAF).

Dostępne stacje oznaczono żółtymi i czerwonymi punktami na mapie.

Najedź kursorem aby zobaczyć nazwę stacji.

Kliknij aby zobaczyć obserwacje i prognozy pogody.

Aby zmienić mapę: kliknij na zielony przycisk z czarnym krzyżykiem, aby powiększyć; na zielony przycisk z myślnikiem, aby pomniejszyć; na zielone strzałki, aby przejść do map sąsiednich.


METAR-TAF: